Time;durP1;ratioP1;P1;durP2;ratioP2;P2;SDS_P1;SDS_P2;PMS_P1;PMS_P2;Temp;Humidity;BMP_temperature;BMP_pressure;BME280_temperature;BME280_humidity;BME280_pressure;Samples;Min_cycle;Max_cycle;Signal;HPM_P1;HPM_P2
2021/06/17 00:00:33;12887.00;0.04;22.95;0.00;0.00;0.62;;;;;24.10;1.00;;;;;;2568571;56;1190;-83
2021/06/17 00:03:00;0.00;0.00;0.62;0.00;0.00;0.62;;;;;24.20;1.00;;;;;;2568765;55;1121;-83
2021/06/17 00:05:29;0.00;0.00;0.62;0.00;0.00;0.62;;;;;24.40;1.00;;;;;;2568999;56;1312;-84
2021/06/17 00:07:57;0.00;0.00;0.62;0.00;0.00;0.62;;;;;24.40;1.00;;;;;;2568688;56;1125;-83
2021/06/17 00:10:28;159645.00;0.53;276.43;11349.00;0.04;20.29;;;;;24.30;1.00;;;;;;2568275;56;1144;-84
2021/06/17 00:12:58;0.00;0.00;0.62;0.00;0.00;0.62;;;;;24.20;1.00;;;;;;2567964;56;1114;-83
2021/06/17 00:15:28;0.00;0.00;0.62;0.00;0.00;0.62;;;;;24.10;1.00;;;;;;2567659;56;1276;-80
2021/06/17 00:17:55;0.00;0.00;0.62;0.00;0.00;0.62;;;;;24.00;1.00;;;;;;2565640;55;1098;-80
2021/06/17 00:20:23;0.00;0.00;0.62;0.00;0.00;0.62;;;;;24.00;1.00;;;;;;2565757;56;1938;-80
2021/06/17 00:22:50;77522.00;0.26;134.76;0.00;0.00;0.62;;;;;23.90;1.00;;;;;;2566255;55;1152;-82
2021/06/17 00:25:17;0.00;0.00;0.62;0.00;0.00;0.62;;;;;23.80;1.00;;;;;;2565819;56;1241;-80
2021/06/17 00:27:45;0.00;0.00;0.62;0.00;0.00;0.62;;;;;23.70;1.00;;;;;;2565939;56;1105;-81
2021/06/17 00:30:13;78659.00;0.26;136.72;0.00;0.00;0.62;;;;;23.80;1.00;;;;;;2566165;56;1104;-81
2021/06/17 00:32:42;49068.00;0.16;85.57;0.00;0.00;0.62;;;;;23.80;1.00;;;;;;2565760;56;1184;-82
2021/06/17 00:35:10;162998.00;0.54;282.20;69679.00;0.23;121.21;;;;;23.90;1.00;;;;;;2566323;56;1294;-81
2021/06/17 00:37:38;169138.00;0.56;292.78;71354.00;0.24;124.10;;;;;23.80;1.00;;;;;;2571741;56;1073;-81
2021/06/17 00:40:07;172039.00;0.57;297.78;79867.00;0.27;138.81;;;;;23.70;1.00;;;;;;2572863;56;1965;-81
2021/06/17 00:42:34;222035.00;0.74;383.85;71354.00;0.24;124.10;;;;;23.60;1.00;;;;;;2573202;56;1143;-82
2021/06/17 00:45:01;163070.00;0.54;282.33;71924.00;0.24;125.09;;;;;23.60;1.00;;;;;;2573430;56;1323;-80
2021/06/17 00:47:28;161214.00;0.54;279.13;59618.00;0.20;103.82;;;;;23.60;1.00;;;;;;2573523;56;1148;-81
2021/06/17 00:49:57;175212.00;0.58;303.24;68355.00;0.23;118.92;;;;;23.40;1.00;;;;;;2569110;56;1105;-81
2021/06/17 00:52:23;263699.00;0.88;455.51;90134.00;0.30;156.54;;;;;23.50;1.00;;;;;;2569529;55;2159;-81
2021/06/17 00:54:50;0.00;0.00;0.62;0.00;0.00;0.62;;;;;23.50;1.00;;;;;;2567569;56;1346;-80
2021/06/17 00:57:18;0.00;0.00;0.62;0.00;0.00;0.62;;;;;23.60;1.00;;;;;;2567103;55;1089;-80
2021/06/17 00:59:45;0.00;0.00;0.62;0.00;0.00;0.62;;;;;23.50;1.00;;;;;;2566685;55;1934;-82
2021/06/17 01:02:12;0.00;0.00;0.62;0.00;0.00;0.62;;;;;23.40;1.00;;;;;;2566583;56;1182;-82
2021/06/17 01:04:39;0.00;0.00;0.62;0.00;0.00;0.62;;;;;23.40;1.00;;;;;;2566537;56;1359;-82
2021/06/17 01:07:08;63524.00;0.21;110.57;0.00;0.00;0.62;;;;;23.40;1.00;;;;;;2566112;56;1201;-81
2021/06/17 01:09:48;0.00;0.00;0.62;0.00;0.00;0.62;;;;;23.40;1.00;;;;;;2566803;55;1106;-82
2021/06/17 01:12:26;56971.00;0.19;99.24;0.00;0.00;0.62;;;;;23.40;1.00;;;;;;2566419;56;1139;-81
2021/06/17 01:14:59;220056.00;0.73;380.44;69253.00;0.23;120.47;;;;;23.30;1.00;;;;;;2564288;56;1450;-82
2021/06/17 01:17:27;0.00;0.00;0.62;0.00;0.00;0.62;;;;;23.20;1.00;;;;;;2566468;56;1125;-81
2021/06/17 01:20:05;37447.00;0.12;65.47;0.00;0.00;0.62;;;;;23.30;1.00;;;;;;2565913;56;1980;-82
2021/06/17 01:22:46;0.00;0.00;0.62;0.00;0.00;0.62;;;;;23.20;1.00;;;;;;2565921;56;1185;-81
2021/06/17 01:25:35;193963.00;0.65;335.53;35220.00;0.12;61.62;;;;;23.10;1.00;;;;;;2566171;56;1436;-81
2021/06/17 01:28:11;177797.00;0.59;307.70;78212.00;0.26;135.95;;;;;23.10;1.00;;;;;;2565897;56;1105;-82
2021/06/17 01:30:48;172672.00;0.58;298.87;70319.00;0.23;122.31;;;;;23.00;1.00;;;;;;2566474;56;1080;-81
2021/06/17 01:33:17;173000.00;0.58;299.43;76053.00;0.25;132.22;;;;;23.10;1.00;;;;;;2566797;56;1132;-81
2021/06/17 01:35:47;164145.00;0.55;284.18;55178.00;0.18;96.14;;;;;23.00;1.00;;;;;;2566755;56;1345;-82
2021/06/17 01:38:18;367505.00;1.23;633.95;113481.00;0.38;196.84;;;;;23.00;1.00;;;;;;2566631;56;1152;-81
2021/06/17 01:40:47;183488.00;0.61;317.50;71211.00;0.24;123.85;;;;;22.70;1.00;;;;;;2571294;56;1928;-81
2021/06/17 01:43:16;118884528.00;396.28;68064272.00;77103.00;0.26;134.03;;;;;22.80;1.00;;;;;;2572302;56;1140;-81
2021/06/17 01:45:45;216408.00;0.72;374.16;73677.00;0.25;128.11;;;;;22.60;1.00;;;;;;2573050;56;1351;-80
2021/06/17 01:48:12;190358.00;0.63;329.32;69036.00;0.23;120.09;;;;;22.80;1.00;;;;;;2573312;56;1120;-81
2021/06/17 01:50:39;215838.00;0.72;373.18;83799.00;0.28;145.60;;;;;22.70;1.00;;;;;;2573545;56;1191;-81
2021/06/17 01:53:08;205966.00;0.69;356.19;73358.00;0.24;127.56;;;;;22.60;1.00;;;;;;2570923;56;1129;-81
2021/06/17 01:55:38;175776.00;0.59;304.22;70002.00;0.23;121.76;;;;;22.70;1.00;;;;;;2568295;56;1322;-81
2021/06/17 01:58:08;246836.00;0.82;426.51;46040.00;0.15;80.34;;;;;22.90;1.00;;;;;;2567440;56;1120;-82
2021/06/17 02:00:37;166867.00;0.56;288.87;70211.00;0.23;122.13;;;;;22.90;1.00;;;;;;2568428;56;1914;-81
2021/06/17 02:03:07;166597.00;0.56;288.40;72245.00;0.24;125.64;;;;;22.80;1.00;;;;;;2569011;56;1143;-80
2021/06/17 02:05:35;164956.00;0.55;285.58;61945.00;0.21;107.84;;;;;22.50;1.00;;;;;;2569807;56;1455;-80
2021/06/17 02:08:05;177861.00;0.59;307.81;67351.00;0.22;117.18;;;;;22.40;1.00;;;;;;2571207;56;1133;-81
2021/06/17 02:10:32;334750.00;1.12;577.65;109602.00;0.37;190.14;;;;;22.50;1.00;;;;;;2571684;56;1180;-81
2021/06/17 02:13:00;146036.00;0.49;252.98;79078.00;0.26;137.44;;;;;22.50;1.00;;;;;;2573223;56;1151;-81
2021/06/17 02:15:30;337128.00;1.12;581.74;85145.00;0.28;147.92;;;;;22.40;1.00;;;;;;2573267;56;1269;-80
2021/06/17 02:18:00;166082.00;0.55;287.52;74480.00;0.25;129.50;;;;;22.60;1.00;;;;;;2574940;56;1132;-79
2021/06/17 02:20:28;166874.00;0.56;288.88;69597.00;0.23;121.06;;;;;22.40;1.00;;;;;;2574550;55;1951;-81
2021/06/17 02:22:59;171072.00;0.57;296.11;69255.00;0.23;120.47;;;;;22.50;1.00;;;;;;2572814;56;1157;-81
2021/06/17 02:25:29;173832.00;0.58;300.87;70680.00;0.24;122.94;;;;;22.40;1.00;;;;;;2574678;55;1443;-81
2021/06/17 02:28:00;438826.00;1.46;756.56;115485.00;0.38;200.29;;;;;22.60;1.00;;;;;;2574146;56;1104;-81
2021/06/17 02:30:31;171765.00;0.57;297.31;71702.00;0.24;124.70;;;;;22.70;1.00;;;;;;2574183;56;1144;-80
2021/06/17 02:33:02;211418.00;0.70;365.58;69028.00;0.23;120.08;;;;;22.80;1.00;;;;;;2569480;56;1112;-82
2021/06/17 02:35:30;200944.00;0.67;347.55;68391.00;0.23;118.98;;;;;22.50;1.00;;;;;;2565722;56;1445;-80
2021/06/17 02:38:00;201455.00;0.67;348.43;70754.00;0.24;123.06;;;;;22.60;1.00;;;;;;2566168;56;1144;-81
2021/06/17 02:40:31;176034.00;0.59;304.66;66949.00;0.22;116.49;;;;;22.30;1.00;;;;;;2566871;56;1928;-81
2021/06/17 02:43:00;214621.00;0.72;371.09;67624.00;0.23;117.65;;;;;22.40;1.00;;;;;;2566867;56;1092;-81
2021/06/17 02:45:30;165715.00;0.55;286.89;64757.00;0.22;112.70;;;;;22.10;1.00;;;;;;2566485;56;1368;-80
2021/06/17 02:47:59;166289.00;0.55;287.87;67587.00;0.23;117.59;;;;;22.20;1.00;;;;;;2566764;56;1196;-81
2021/06/17 02:50:26;172321.00;0.57;298.26;74891.00;0.25;130.21;;;;;22.10;1.00;;;;;;2566199;56;1143;-80
2021/06/17 02:52:53;284300.00;0.95;490.93;73439.00;0.24;127.70;;;;;22.50;1.00;;;;;;2565837;56;1200;-81
2021/06/17 02:55:20;443647.00;1.48;764.86;133318.00;0.44;231.05;;;;;22.40;1.00;;;;;;2565647;56;1318;-81
2021/06/17 02:58:00;243120.00;0.81;420.12;77325.00;0.26;134.42;;;;;22.50;1.00;;;;;;2565938;56;1057;-81
2021/06/17 03:00:30;168738.00;0.56;292.09;76837.00;0.26;133.57;;;;;22.60;1.00;;;;;;2565796;56;1967;-81
2021/06/17 03:03:10;228039.00;0.76;394.18;76393.00;0.25;132.81;;;;;22.70;1.00;;;;;;2565706;56;1060;-81
2021/06/17 03:05:42;186106.00;0.62;322.00;45697.00;0.15;79.74;;;;;22.80;1.00;;;;;;2565883;56;1360;-81
2021/06/17 03:08:17;32657.00;0.11;57.18;0.00;0.00;0.62;;;;;22.80;1.00;;;;;;2566091;56;1084;-81
2021/06/17 03:10:45;26181.00;0.09;45.97;0.00;0.00;0.62;;;;;22.80;1.00;;;;;;2565895;56;1240;-81
2021/06/17 03:13:13;0.00;0.00;0.62;0.00;0.00;0.62;;;;;22.70;1.00;;;;;;2565440;56;1122;-80
2021/06/17 03:15:44;76700.00;0.26;133.34;0.00;0.00;0.62;;;;;21.90;1.00;;;;;;2566976;55;1592;-81
2021/06/17 03:18:13;0.00;0.00;0.62;0.00;0.00;0.62;;;;;21.50;1.00;;;;;;2565539;56;1090;-81
2021/06/17 03:20:42;0.00;0.00;0.62;0.00;0.00;0.62;;;;;21.10;1.00;;;;;;2565121;56;1979;-80
2021/06/17 03:23:13;53266.00;0.18;92.83;0.00;0.00;0.62;;;;;20.90;1.00;;;;;;2564724;56;1236;-81
2021/06/17 03:25:42;91199.00;0.30;158.38;0.00;0.00;0.62;;;;;21.00;1.00;;;;;;2565195;56;1364;-81
2021/06/17 03:28:12;0.00;0.00;0.62;0.00;0.00;0.62;;;;;21.30;1.00;;;;;;2565204;56;1071;-80
2021/06/17 03:30:45;0.00;0.00;0.62;0.00;0.00;0.62;;;;;21.10;1.00;;;;;;2564942;56;1212;-79
2021/06/17 03:33:17;0.00;0.00;0.62;0.00;0.00;0.62;;;;;21.20;1.00;;;;;;2565155;56;1120;-81
2021/06/17 03:35:47;194668.00;0.65;336.75;58308.00;0.19;101.55;;;;;21.30;1.00;;;;;;2564784;56;1464;-81
2021/06/17 03:38:16;0.00;0.00;0.62;0.00;0.00;0.62;;;;;21.20;1.00;;;;;;2565339;56;1095;-79
2021/06/17 03:40:45;32893.00;0.11;57.59;0.00;0.00;0.62;;;;;20.90;1.00;;;;;;2565362;56;1930;-80
2021/06/17 03:43:14;0.00;0.00;0.62;0.00;0.00;0.62;;;;;20.90;1.00;;;;;;2567330;55;1096;-80
2021/06/17 03:45:43;26181.00;0.09;45.97;0.00;0.00;0.62;;;;;21.20;1.00;;;;;;2565606;56;1356;-81
2021/06/17 03:48:13;55896.00;0.19;97.38;0.00;0.00;0.62;;;;;21.40;1.00;;;;;;2565567;56;1104;-80
2021/06/17 03:50:43;0.00;0.00;0.62;0.00;0.00;0.62;;;;;21.50;1.00;;;;;;2565466;56;1107;-80
2021/06/17 03:53:11;319229.00;1.06;550.97;76110.00;0.25;132.32;;;;;21.50;1.00;;;;;;2565631;56;1101;-81
2021/06/17 03:55:40;100582.00;0.34;174.58;33968.00;0.11;59.45;;;;;21.70;1.00;;;;;;2565547;56;1335;-80
2021/06/17 03:58:07;27089.00;0.09;47.54;0.00;0.00;0.62;;;;;21.70;1.00;;;;;;2565505;56;1120;-79
2021/06/17 04:00:34;0.00;0.00;0.62;0.00;0.00;0.62;;;;;21.80;1.00;;;;;;2565711;56;1952;-79
2021/06/17 04:03:06;0.00;0.00;0.62;0.00;0.00;0.62;;;;;21.80;1.00;;;;;;2565133;56;1121;-80
2021/06/17 04:05:34;112890.00;0.38;195.82;0.00;0.00;0.62;;;;;21.80;1.00;;;;;;2565093;56;1449;-80
2021/06/17 04:08:03;0.00;0.00;0.62;0.00;0.00;0.62;;;;;21.70;1.00;;;;;;2565650;56;1131;-81
2021/06/17 04:10:31;0.00;0.00;0.62;0.00;0.00;0.62;;;;;21.80;1.00;;;;;;2565858;56;1069;-80
2021/06/17 04:12:59;108776.00;0.36;188.72;41871.00;0.14;73.13;;;;;21.90;1.00;;;;;;2565644;55;1124;-80
2021/06/17 04:15:28;270327.00;0.90;466.91;56116.00;0.19;97.76;;;;;22.10;1.00;;;;;;2565652;56;1318;-80
2021/06/17 04:17:58;0.00;0.00;0.62;0.00;0.00;0.62;;;;;22.30;1.00;;;;;;2565231;56;1132;-80
2021/06/17 04:20:30;0.00;0.00;0.62;0.00;0.00;0.62;;;;;22.40;1.00;;;;;;2565430;56;1971;-81
2021/06/17 04:22:59;262719.00;0.88;453.82;39495.00;0.13;69.01;;;;;22.70;1.00;;;;;;2565094;56;1139;-81
2021/06/17 04:25:28;0.00;0.00;0.62;0.00;0.00;0.62;;;;;22.60;1.00;;;;;;2565115;56;1331;-81
2021/06/17 04:27:58;14131.00;0.05;25.11;0.00;0.00;0.62;;;;;22.50;1.00;;;;;;2564931;55;1189;-80
2021/06/17 04:30:28;2611.00;0.01;5.15;0.00;0.00;0.62;;;;;22.50;1.00;;;;;;2565043;56;1085;-81
2021/06/17 04:32:56;0.00;0.00;0.62;0.00;0.00;0.62;;;;;22.50;1.00;;;;;;2565143;56;1038;-81
2021/06/17 04:35:25;0.00;0.00;0.62;0.00;0.00;0.62;;;;;22.60;1.00;;;;;;2565176;56;1245;-79
2021/06/17 04:37:52;18629.00;0.06;32.90;0.00;0.00;0.62;;;;;22.90;1.00;;;;;;2565157;56;1108;-82
2021/06/17 04:40:25;0.00;0.00;0.62;0.00;0.00;0.62;;;;;23.00;1.00;;;;;;2565336;55;1934;-80
2021/06/17 04:42:57;158709.00;0.53;274.81;59767.00;0.20;104.07;;;;;23.10;1.00;;;;;;2565645;56;1247;-81
2021/06/17 04:45:27;274303.00;0.91;473.74;80447.00;0.27;139.81;;;;;23.00;1.00;;;;;;2565494;55;1434;-80
2021/06/17 04:47:57;219016.00;0.73;378.65;72534.00;0.24;126.14;;;;;23.10;1.00;;;;;;2565285;55;1193;-80
2021/06/17 04:50:24;173839.00;0.58;300.88;56890.00;0.19;99.10;;;;;23.30;1.00;;;;;;2565288;56;1121;-80
2021/06/17 04:53:10;247200.00;0.82;427.14;87242.00;0.29;151.55;;;;;23.40;1.00;;;;;;2565321;56;1121;-80
2021/06/17 04:55:42;279326.00;0.93;482.38;65640.00;0.22;114.23;;;;;23.70;1.00;;;;;;2565323;56;1441;-80
2021/06/17 04:58:10;62801.00;0.21;109.32;0.00;0.00;0.62;;;;;23.90;1.00;;;;;;2565395;56;1193;-80
2021/06/17 05:00:38;213781.00;0.71;369.64;0.00;0.00;0.62;;;;;24.20;1.00;;;;;;2565111;56;1994;-80
2021/06/17 05:03:05;167001.00;0.56;289.10;0.00;0.00;0.62;;;;;24.10;1.00;;;;;;2565157;56;1117;-80
2021/06/17 05:05:32;237896.00;0.79;411.13;58957.00;0.20;102.67;;;;;24.00;1.00;;;;;;2565129;56;1309;-80
2021/06/17 05:10:49;159218.00;0.53;275.69;0.00;0.00;0.62;;;;;24.30;1.00;;;;;;2567447;55;737;-80
2021/06/17 05:13:19;238898.00;0.80;412.86;0.00;0.00;0.62;;;;;24.10;1.00;;;;;;2567634;55;1178;-80
2021/06/17 05:15:47;136039.00;0.45;235.74;0.00;0.00;0.62;;;;;24.30;1.00;;;;;;2566522;56;1275;-81
2021/06/17 05:18:14;91795.00;0.31;159.41;0.00;0.00;0.62;;;;;24.50;1.00;;;;;;2566304;56;1079;-80
2021/06/17 05:20:41;124159.00;0.41;215.26;0.00;0.00;0.62;;;;;24.50;1.00;;;;;;2566867;55;1983;-80
2021/06/17 05:23:08;130334.00;0.43;225.91;0.00;0.00;0.62;;;;;24.50;1.00;;;;;;2564830;56;1094;-78
2021/06/17 05:25:35;238969.00;0.80;412.98;41660.00;0.14;72.76;;;;;24.70;1.00;;;;;;2564261;55;1245;-79
2021/06/17 05:28:03;78768.00;0.26;136.91;0.00;0.00;0.62;;;;;24.90;1.00;;;;;;2568143;55;1131;-79
2021/06/17 05:30:31;84754.00;0.28;147.25;0.00;0.00;0.62;;;;;25.10;1.00;;;;;;2564708;56;1095;-79
2021/06/17 05:32:58;214115.00;0.71;370.22;71749.00;0.24;124.78;;;;;25.10;1.00;;;;;;2564832;56;1114;-80
2021/06/17 05:35:25;259252.00;0.86;447.86;70485.00;0.23;122.60;;;;;25.20;1.00;;;;;;2565446;56;1345;-81
2021/06/17 05:37:52;237478.00;0.79;410.41;71197.00;0.24;123.83;;;;;25.40;1.00;;;;;;2564695;56;1153;-80
2021/06/17 05:40:19;266625.00;0.89;460.54;73427.00;0.24;127.68;;;;;25.90;1.00;;;;;;2570511;56;1965;-81
2021/06/17 05:42:45;299251.00;1.00;516.63;64203.00;0.21;111.74;;;;;27.40;1.00;;;;;;2572204;56;1145;-81
2021/06/17 05:45:13;315616.00;1.05;544.76;80272.00;0.27;139.51;;;;;29.30;1.00;;;;;;2569289;56;1352;-82
2021/06/17 05:47:42;281073.00;0.94;485.38;64252.00;0.21;111.83;;;;;30.80;1.00;;;;;;2565039;56;1136;-82
2021/06/17 05:50:10;242689.00;0.81;419.38;63750.00;0.21;110.96;;;;;32.30;1.00;;;;;;2564961;56;1144;-80
2021/06/17 05:52:37;290254.00;0.97;501.17;71165.00;0.24;123.77;;;;;32.70;1.00;;;;;;2565376;56;1115;-80
2021/06/17 05:55:05;287335.00;0.96;496.15;68584.00;0.23;119.31;;;;;34.10;1.00;;;;;;2565105;56;1300;-80
2021/06/17 05:57:32;226583.00;0.76;391.67;61315.00;0.20;106.75;;;;;35.30;1.00;;;;;;2565331;56;1182;-80
2021/06/17 05:59:59;403000.00;1.34;694.96;64221.00;0.21;111.77;;;;;35.30;1.00;;;;;;2564985;55;1986;-81
2021/06/17 06:02:26;279852.00;0.93;483.28;64386.00;0.21;112.06;;;;;36.60;1.00;;;;;;2564871;56;1203;-81
2021/06/17 06:04:54;240258.00;0.80;415.19;62775.00;0.21;109.27;;;;;37.70;1.00;;;;;;2564772;56;1434;-82
2021/06/17 06:07:21;228451.00;0.76;394.88;57890.00;0.19;100.83;;;;;37.20;1.00;;;;;;2564927;56;1157;-82
2021/06/17 06:09:48;213796.00;0.71;369.67;61791.00;0.21;107.57;;;;;37.10;1.00;;;;;;2565165;56;1152;-82
2021/06/17 06:12:16;224926.00;0.75;388.82;56761.00;0.19;98.88;;;;;38.00;1.00;;;;;;2566005;56;1145;-81
2021/06/17 06:14:43;335870.00;1.12;579.58;55788.00;0.19;97.19;;;;;38.90;1.00;;;;;;2564944;56;1285;-82
2021/06/17 06:17:10;170265.00;0.57;294.72;55210.00;0.18;96.20;;;;;40.00;1.00;;;;;;2564883;56;1087;-82
2021/06/17 06:19:37;234058.00;0.78;404.53;55081.00;0.18;95.97;;;;;40.10;1.00;;;;;;2565036;56;1137;-82
2021/06/17 06:22:08;358631.00;1.20;618.70;59051.00;0.20;102.84;;;;;39.30;1.00;;;;;;2567223;56;1927;-82
2021/06/17 06:24:37;281989.00;0.94;486.96;54035.00;0.18;94.16;;;;;39.00;1.00;;;;;;2567161;56;1357;-83
2021/06/17 06:27:05;228474.00;0.76;394.92;55052.00;0.18;95.92;;;;;39.10;1.00;;;;;;2566873;56;1156;-82
2021/06/17 06:29:32;207297.00;0.69;358.48;57490.00;0.19;100.14;;;;;39.90;1.00;;;;;;2567012;56;1236;-82
2021/06/17 06:32:00;282806.00;0.94;488.36;52965.00;0.18;92.31;;;;;40.40;1.00;;;;;;2567608;56;1150;-82
2021/06/17 06:34:27;218890.00;0.73;378.43;60984.00;0.20;106.18;;;;;40.10;1.00;;;;;;2567498;56;1084;-82
2021/06/17 06:36:54;776710.00;2.59;1340.54;203843.00;0.68;352.54;;;;;40.70;1.00;;;;;;2567457;56;1517;-82
2021/06/17 06:39:22;327828.00;1.09;565.75;75828.00;0.25;131.83;;;;;40.50;1.00;;;;;;2567352;56;1078;-82
2021/06/17 06:41:51;386595.00;1.29;666.76;54958.00;0.18;95.76;;;;;40.20;1.00;;;;;;2569661;55;1931;-83
2021/06/17 06:44:18;345000.00;1.15;595.27;48720.00;0.16;84.97;;;;;40.20;1.00;;;;;;2567336;56;1104;-83
2021/06/17 06:46:45;200117.00;0.67;346.13;55524.00;0.19;96.74;;;;;40.20;1.00;;;;;;2567790;56;1233;-83
2021/06/17 06:49:12;344791.00;1.15;594.91;51367.00;0.17;89.55;;;;;39.60;1.00;;;;;;2568836;56;1113;-83
2021/06/17 06:51:40;345197.00;1.15;595.61;51667.00;0.17;90.07;;;;;40.30;1.00;;;;;;2567559;56;1133;-83
2021/06/17 06:54:09;340803.00;1.14;588.05;50864.00;0.17;88.68;;;;;40.80;1.00;;;;;;2566698;56;1038;-83
2021/06/17 06:56:38;419701.00;1.40;723.68;73463.00;0.24;127.74;;;;;41.30;1.00;;;;;;2569001;55;1314;-81
2021/06/17 06:59:06;296896.00;0.99;512.58;58856.00;0.20;102.50;;;;;41.70;1.00;;;;;;2567366;56;1233;-81
2021/06/17 07:01:33;371248.00;1.24;640.38;59659.00;0.20;103.89;;;;;41.50;1.00;;;;;;2567573;56;1936;-82
2021/06/17 07:04:00;391169.00;1.30;674.62;45535.00;0.15;79.46;;;;;41.20;1.00;;;;;;2567867;56;1055;-82
2021/06/17 07:06:28;336772.00;1.12;581.13;58269.00;0.19;101.48;;;;;42.00;1.00;;;;;;2570438;55;1230;-82
2021/06/17 07:08:55;405765.00;1.35;699.72;127340.00;0.42;220.74;;;;;41.40;1.00;;;;;;2569132;56;1130;-82
2021/06/17 07:11:22;254628.00;0.85;439.91;53381.00;0.18;93.03;;;;;41.00;1.00;;;;;;2571771;55;1118;-82
2021/06/17 07:13:51;286898.00;0.96;495.40;57519.00;0.19;100.19;;;;;41.90;1.00;;;;;;2570160;56;1169;-82
2021/06/17 07:16:18;296214.00;0.99;511.41;34963.00;0.12;61.17;;;;;40.80;1.00;;;;;;2570389;56;1341;-82
2021/06/17 07:18:45;321476.00;1.07;554.84;55899.00;0.19;97.39;;;;;40.70;1.00;;;;;;2569919;56;1260;-83
2021/06/17 07:21:14;220766.00;0.74;381.66;56558.00;0.19;98.53;;;;;41.20;1.00;;;;;;2569996;56;1922;-81
2021/06/17 07:23:41;320914.00;1.07;553.87;55207.00;0.18;96.19;;;;;41.50;1.00;;;;;;2569943;56;1206;-82
2021/06/17 07:26:08;556625.00;1.86;959.38;115297.00;0.38;199.97;;;;;41.70;1.00;;;;;;2569658;56;1313;-81
2021/06/17 07:28:35;273851.00;0.91;472.97;53403.00;0.18;93.07;;;;;42.00;1.00;;;;;;2571283;55;1079;-81
2021/06/17 07:31:03;361427.00;1.20;623.50;135602.00;0.45;234.99;;;;;41.70;1.00;;;;;;2570430;56;1213;-82
2021/06/17 07:33:30;236677.00;0.79;409.04;54053.00;0.18;94.19;;;;;41.00;1.00;;;;;;2569847;55;1080;-82
2021/06/17 07:35:57;401522.00;1.34;692.42;113811.00;0.38;197.41;;;;;41.00;1.00;;;;;;2571893;56;1277;-82
2021/06/17 07:38:24;257480.00;0.86;444.81;56586.00;0.19;98.57;;;;;41.40;1.00;;;;;;2572719;56;1124;-82
2021/06/17 07:40:51;314503.00;1.05;542.85;53031.00;0.18;92.43;;;;;40.80;1.00;;;;;;2575928;55;1968;-81
2021/06/17 07:43:18;256046.00;0.85;442.35;48644.00;0.16;84.84;;;;;40.50;1.00;;;;;;2571096;56;1159;-82
2021/06/17 07:45:45;279157.00;0.93;482.09;57295.00;0.19;99.80;;;;;40.50;1.00;;;;;;2572157;55;1365;-82
2021/06/17 07:48:14;229612.00;0.77;396.88;60667.00;0.20;105.63;;;;;40.70;1.00;;;;;;2573170;56;1105;-82
2021/06/17 07:50:42;201996.00;0.67;349.36;50411.00;0.17;87.90;;;;;40.80;1.00;;;;;;2571613;56;1086;-82
2021/06/17 07:53:10;189815.00;0.63;328.39;50884.00;0.17;88.71;;;;;41.50;1.00;;;;;;2571997;56;1148;-82
2021/06/17 07:55:37;364452.00;1.21;628.70;114035.00;0.38;197.79;;;;;41.00;1.00;;;;;;2569315;55;1303;-82
2021/06/17 07:58:04;233996.00;0.78;404.42;52337.00;0.17;91.23;;;;;40.30;1.00;;;;;;2568263;56;1105;-83
2021/06/17 08:00:31;249720.00;0.83;431.47;49446.00;0.16;86.23;;;;;40.90;1.00;;;;;;2568066;56;1058;-83
2021/06/17 08:02:59;298436.00;0.99;515.23;50723.00;0.17;88.44;;;;;40.90;1.00;;;;;;2567029;55;1200;-83
2021/06/17 08:05:28;446571.00;1.49;769.88;125653.00;0.42;217.83;;;;;40.50;1.00;;;;;;2566753;56;1262;-82
2021/06/17 08:07:54;352402.00;1.17;607.99;63744.00;0.21;110.95;;;;;40.40;1.00;;;;;;2569347;55;1148;-82
2021/06/17 08:10:23;358218.00;1.19;617.99;49524.00;0.17;86.36;;;;;40.10;1.00;;;;;;2573673;55;1113;-82
2021/06/17 08:12:51;94657.00;0.32;164.35;0.00;0.00;0.62;;;;;40.70;1.00;;;;;;2572869;56;1117;-82
2021/06/17 08:15:18;365935.00;1.22;631.25;54340.00;0.18;94.69;;;;;40.90;1.00;;;;;;2565456;56;1376;-84
2021/06/17 08:17:45;301164.00;1.00;519.92;57498.00;0.19;100.15;;;;;40.70;1.00;;;;;;2567033;55;1101;-82
2021/06/17 08:20:13;165479.00;0.55;286.48;50945.00;0.17;88.82;;;;;41.10;1.00;;;;;;2569392;55;1112;-82
2021/06/17 08:22:42;186093.00;0.62;321.98;54047.00;0.18;94.18;;;;;41.20;1.00;;;;;;2569153;55;1985;-82
2021/06/17 08:25:11;56646.00;0.19;98.68;0.00;0.00;0.62;;;;;41.40;1.00;;;;;;2567399;55;1360;-83
2021/06/17 08:27:38;166901.00;0.56;288.93;13684.00;0.05;24.33;;;;;42.00;1.00;;;;;;2566871;55;1113;-83
2021/06/17 08:30:09;150658.00;0.50;260.94;0.00;0.00;0.62;;;;;41.90;1.00;;;;;;2566468;56;1108;-82
2021/06/17 08:32:36;84368.00;0.28;146.58;0.00;0.00;0.62;;;;;41.50;1.00;;;;;;2567436;56;1117;-82
2021/06/17 08:35:03;147226.00;0.49;255.03;0.00;0.00;0.62;;;;;42.40;1.00;;;;;;2569649;55;1252;-83
2021/06/17 08:37:30;113947.00;0.38;197.64;0.00;0.00;0.62;;;;;41.90;1.00;;;;;;2568198;56;1192;-83
2021/06/17 08:39:58;358355.00;1.19;618.22;61744.00;0.21;107.49;;;;;41.70;1.00;;;;;;2568317;55;1144;-83
2021/06/17 08:42:27;133184.00;0.44;230.82;0.00;0.00;0.62;;;;;41.70;1.00;;;;;;2566807;56;1937;-83
2021/06/17 08:44:54;61287.00;0.20;106.70;0.00;0.00;0.62;;;;;40.80;1.00;;;;;;2566472;56;1274;-83
2021/06/17 08:47:21;368.00;0.00;1.26;0.00;0.00;0.62;;;;;40.60;1.00;;;;;;2566825;56;1559;-83
2021/06/17 08:49:51;218323.00;0.73;377.46;0.00;0.00;0.62;;;;;39.90;1.00;;;;;;2567590;56;1123;-83
2021/06/17 08:52:19;62520.00;0.21;108.83;0.00;0.00;0.62;;;;;40.30;1.00;;;;;;2568975;56;1134;-83
2021/06/17 08:54:47;72681.00;0.24;126.39;0.00;0.00;0.62;;;;;40.40;1.00;;;;;;2570829;55;1403;-83
2021/06/17 08:57:16;83736.00;0.28;145.49;0.00;0.00;0.62;;;;;40.70;1.00;;;;;;2568608;56;1105;-83
2021/06/17 08:59:45;225337.00;0.75;389.53;51784.00;0.17;90.27;;;;;40.90;1.00;;;;;;2568168;56;1125;-83
2021/06/17 09:02:12;189170.00;0.63;327.28;50790.00;0.17;88.55;;;;;40.80;1.00;;;;;;2570384;55;1974;-83
2021/06/17 09:04:39;168879.00;0.56;292.34;58542.00;0.20;101.96;;;;;40.30;1.00;;;;;;2567876;55;1266;-83
2021/06/17 09:07:08;169387.00;0.56;293.21;53847.00;0.18;93.84;;;;;40.20;1.00;;;;;;2568004;56;1266;-83
2021/06/17 09:09:39;168295.00;0.56;291.33;52299.00;0.17;91.16;;;;;39.50;1.00;;;;;;2568286;56;1123;-83
2021/06/17 09:12:08;174395.00;0.58;301.84;52313.00;0.17;91.19;;;;;39.40;1.00;;;;;;2571009;55;1120;-80
2021/06/17 09:14:37;168174.00;0.56;291.12;60192.00;0.20;104.81;;;;;39.30;1.00;;;;;;2568045;56;1345;-84
2021/06/17 09:17:07;167236.00;0.56;289.51;32591.00;0.11;57.07;;;;;39.00;1.00;;;;;;2568363;56;1096;-83
2021/06/17 09:19:39;88383.00;0.29;153.52;0.00;0.00;0.62;;;;;38.80;1.00;;;;;;2568472;56;1110;-83
2021/06/17 09:22:07;0.00;0.00;0.62;0.00;0.00;0.62;;;;;38.90;1.00;;;;;;2568713;56;1967;-83
2021/06/17 09:24:36;242408.00;0.81;418.89;113675.00;0.38;197.17;;;;;39.10;1.00;;;;;;2568982;56;1256;-83
2021/06/17 09:27:24;0.00;0.00;0.62;0.00;0.00;0.62;;;;;38.70;1.00;;;;;;2570271;56;1227;-80
2021/06/17 09:29:54;163700.00;0.55;283.41;53245.00;0.18;92.80;;;;;38.20;1.00;;;;;;2573588;56;1084;-80
2021/06/17 09:32:23;247856.00;0.83;428.26;62829.00;0.21;109.37;;;;;37.60;1.00;;;;;;2571684;56;1105;-80
2021/06/17 09:34:50;164469.00;0.55;284.74;61035.00;0.20;106.27;;;;;37.10;1.00;;;;;;2571292;55;1268;-81
2021/06/17 09:37:35;167933.00;0.56;290.71;60126.00;0.20;104.69;;;;;36.80;1.00;;;;;;2575696;55;1544;-80
2021/06/17 09:40:21;189471.00;0.63;327.80;55703.00;0.19;97.05;;;;;37.20;1.00;;;;;;2574806;56;1104;-80
2021/06/17 09:42:48;257486.00;0.86;444.83;68688.00;0.23;119.49;;;;;37.10;1.00;;;;;;2574832;56;1950;-80
2021/06/17 09:45:19;235753.00;0.79;407.45;61381.00;0.20;106.86;;;;;37.00;1.00;;;;;;2576773;55;1409;-81
2021/06/17 09:47:46;188869.00;0.63;326.76;56974.00;0.19;99.25;;;;;37.20;1.00;;;;;;2574835;56;1228;-82
2021/06/17 09:50:25;168577.00;0.56;291.82;60985.00;0.20;106.18;;;;;37.00;1.00;;;;;;2574145;56;1134;-80
2021/06/17 09:52:52;210082.00;0.70;363.28;52762.00;0.18;91.96;;;;;37.10;1.00;;;;;;2568814;56;1158;-83
2021/06/17 09:55:42;304273.00;1.01;525.27;117267.00;0.39;203.37;;;;;37.30;1.00;;;;;;2569476;56;1267;-83